sensor_id;sensor_type;location;lat;lon;timestamp;pressure;altitude;pressure_sealevel;temperature;humidity
47897;BME280;39629;51.400;5.494;2023-01-31T00:03:10;102358.06;;;0.15;100.00
47897;BME280;39629;51.400;5.494;2023-01-31T00:08:12;102363.63;;;0.21;100.00
47897;BME280;39629;51.400;5.494;2023-01-31T00:13:16;102368.81;;;0.21;100.00
47897;BME280;39629;51.400;5.494;2023-01-31T00:18:17;102369.59;;;0.07;100.00
47897;BME280;39629;51.400;5.494;2023-01-31T00:23:19;102369.59;;;0.07;100.00
47897;BME280;39629;51.400;5.494;2023-01-31T00:28:22;102372.69;;;0.14;100.00
47897;BME280;39629;51.400;5.494;2023-01-31T00:33:24;102362.22;;;0.26;100.00
47897;BME280;39629;51.400;5.494;2023-01-31T00:38:25;102364.72;;;0.25;100.00
47897;BME280;39629;51.400;5.494;2023-01-31T00:43:29;102365.28;;;0.47;100.00
47897;BME280;39629;51.400;5.494;2023-01-31T00:48:31;102367.06;;;0.48;100.00
47897;BME280;39629;51.400;5.494;2023-01-31T00:53:33;102361.75;;;0.60;100.00
47897;BME280;39629;51.400;5.494;2023-01-31T00:58:37;102359.53;;;0.66;100.00
47897;BME280;39629;51.400;5.494;2023-01-31T01:03:40;102359.94;;;0.73;100.00
47897;BME280;39629;51.400;5.494;2023-01-31T01:08:42;102350.38;;;0.72;100.00
47897;BME280;39629;51.400;5.494;2023-01-31T01:13:45;102344.75;;;0.79;100.00
47897;BME280;39629;51.400;5.494;2023-01-31T01:18:48;102339.31;;;0.74;100.00
47897;BME280;39629;51.400;5.494;2023-01-31T01:23:49;102342.16;;;0.79;100.00
47897;BME280;39629;51.400;5.494;2023-01-31T01:28:53;102339.31;;;0.74;100.00
47897;BME280;39629;51.400;5.494;2023-01-31T01:33:58;102320.31;;;0.60;100.00
47897;BME280;39629;51.400;5.494;2023-01-31T01:39:00;102322.66;;;0.71;100.00
47897;BME280;39629;51.400;5.494;2023-01-31T01:44:39;102307.72;;;0.66;100.00
47897;BME280;39629;51.400;5.494;2023-01-31T01:49:30;102311.31;;;0.69;100.00
47897;BME280;39629;51.400;5.494;2023-01-31T01:54:36;102305.44;;;0.71;100.00
47897;BME280;39629;51.400;5.494;2023-01-31T01:59:43;102292.75;;;0.76;100.00
47897;BME280;39629;51.400;5.494;2023-01-31T02:04:47;102303.97;;;0.61;100.00
47897;BME280;39629;51.400;5.494;2023-01-31T02:09:53;102306.41;;;0.73;100.00
47897;BME280;39629;51.400;5.494;2023-01-31T02:14:59;102311.72;;;0.90;100.00
47897;BME280;39629;51.400;5.494;2023-01-31T02:20:11;102321.78;;;0.70;100.00
47897;BME280;39629;51.400;5.494;2023-01-31T02:25:53;102312.03;;;0.66;100.00
47897;BME280;39629;51.400;5.494;2023-01-31T02:36:48;102332.81;;;0.81;100.00
47897;BME280;39629;51.400;5.494;2023-01-31T02:41:56;102338.53;;;0.90;100.00
47897;BME280;39629;51.400;5.494;2023-01-31T02:47:08;102334.59;;;0.97;100.00
47897;BME280;39629;51.400;5.494;2023-01-31T02:52:17;102319.44;;;1.18;100.00
47897;BME280;39629;51.400;5.494;2023-01-31T02:57:26;102326.06;;;1.13;100.00
47897;BME280;39629;51.400;5.494;2023-01-31T03:02:28;102320.34;;;1.18;100.00
47897;BME280;39629;51.400;5.494;2023-01-31T03:07:33;102316.13;;;1.21;100.00
47897;BME280;39629;51.400;5.494;2023-01-31T03:12:50;102330.97;;;1.23;100.00
47897;BME280;39629;51.400;5.494;2023-01-31T03:18:00;102309.44;;;1.39;100.00
47897;BME280;39629;51.400;5.494;2023-01-31T03:23:10;102301.38;;;1.34;100.00
47897;BME280;39629;51.400;5.494;2023-01-31T03:28:17;102296.13;;;1.48;100.00
47897;BME280;39629;51.400;5.494;2023-01-31T03:33:23;102289.97;;;1.46;100.00
47897;BME280;39629;51.400;5.494;2023-01-31T03:38:33;102293.88;;;1.39;100.00
47897;BME280;39629;51.400;5.494;2023-01-31T03:43:38;102296.75;;;1.44;100.00
47897;BME280;39629;51.400;5.494;2023-01-31T03:48:42;102282.25;;;1.32;100.00
47897;BME280;39629;51.400;5.494;2023-01-31T03:53:51;102287.63;;;1.35;100.00
47897;BME280;39629;51.400;5.494;2023-01-31T03:58:58;102279.59;;;1.46;100.00
47897;BME280;39629;51.400;5.494;2023-01-31T04:04:04;102273.47;;;1.45;100.00
47897;BME280;39629;51.400;5.494;2023-01-31T04:09:10;102280.72;;;1.51;100.00
47897;BME280;39629;51.400;5.494;2023-01-31T04:14:11;102271.06;;;1.48;100.00
47897;BME280;39629;51.400;5.494;2023-01-31T04:19:13;102273.31;;;1.57;100.00
47897;BME280;39629;51.400;5.494;2023-01-31T04:24:16;102270.47;;;1.38;100.00
47897;BME280;39629;51.400;5.494;2023-01-31T04:29:18;102277.50;;;1.40;100.00
47897;BME280;39629;51.400;5.494;2023-01-31T04:34:19;102268.19;;;1.44;100.00
47897;BME280;39629;51.400;5.494;2023-01-31T04:39:22;102272.94;;;1.36;100.00
47897;BME280;39629;51.400;5.494;2023-01-31T04:44:24;102265.34;;;1.39;100.00
47897;BME280;39629;51.400;5.494;2023-01-31T04:49:25;102258.47;;;1.40;100.00
47897;BME280;39629;51.400;5.494;2023-01-31T04:54:28;102263.56;;;1.23;100.00
47897;BME280;39629;51.400;5.494;2023-01-31T04:59:30;102260.16;;;1.24;100.00
47897;BME280;39629;51.400;5.494;2023-01-31T05:04:32;102257.41;;;1.21;100.00
47897;BME280;39629;51.400;5.494;2023-01-31T05:09:34;102240.06;;;1.20;100.00
47897;BME280;39629;51.400;5.494;2023-01-31T05:14:36;102225.91;;;1.15;100.00
47897;BME280;39629;51.400;5.494;2023-01-31T05:19:38;102205.63;;;1.23;100.00
47897;BME280;39629;51.400;5.494;2023-01-31T05:24:43;102214.19;;;1.37;100.00
47897;BME280;39629;51.400;5.494;2023-01-31T05:29:45;102188.78;;;1.46;100.00
47897;BME280;39629;51.400;5.494;2023-01-31T05:34:46;102194.47;;;1.55;100.00
47897;BME280;39629;51.400;5.494;2023-01-31T05:39:49;102204.50;;;1.49;100.00
47897;BME280;39629;51.400;5.494;2023-01-31T05:44:51;102198.50;;;1.50;100.00
47897;BME280;39629;51.400;5.494;2023-01-31T05:49:53;102192.94;;;1.59;100.00
47897;BME280;39629;51.400;5.494;2023-01-31T05:54:55;102194.19;;;1.65;100.00
47897;BME280;39629;51.400;5.494;2023-01-31T05:59:57;102189.19;;;1.54;100.00
47897;BME280;39629;51.400;5.494;2023-01-31T06:05:00;102183.13;;;1.53;100.00
47897;BME280;39629;51.400;5.494;2023-01-31T06:10:04;102176.06;;;1.82;100.00
47897;BME280;39629;51.400;5.494;2023-01-31T06:15:07;102183.66;;;1.79;100.00
47897;BME280;39629;51.400;5.494;2023-01-31T06:20:10;102188.19;;;1.83;100.00
47897;BME280;39629;51.400;5.494;2023-01-31T06:25:13;102192.25;;;1.94;100.00
47897;BME280;39629;51.400;5.494;2023-01-31T06:30:15;102189.38;;;2.05;100.00
47897;BME280;39629;51.400;5.494;2023-01-31T06:35:17;102198.13;;;2.07;100.00
47897;BME280;39629;51.400;5.494;2023-01-31T06:40:20;102186.28;;;2.12;100.00
47897;BME280;39629;51.400;5.494;2023-01-31T06:45:21;102191.16;;;2.06;100.00
47897;BME280;39629;51.400;5.494;2023-01-31T06:50:23;102188.22;;;2.16;100.00
47897;BME280;39629;51.400;5.494;2023-01-31T06:55:26;102181.66;;;2.23;100.00
47897;BME280;39629;51.400;5.494;2023-01-31T07:00:28;102176.56;;;2.24;100.00
47897;BME280;39629;51.400;5.494;2023-01-31T07:05:29;102175.75;;;2.25;100.00
47897;BME280;39629;51.400;5.494;2023-01-31T07:10:32;102170.94;;;2.33;100.00
47897;BME280;39629;51.400;5.494;2023-01-31T07:15:34;102168.19;;;2.30;100.00
47897;BME280;39629;51.400;5.494;2023-01-31T07:20:36;102165.25;;;2.40;100.00
47897;BME280;39629;51.400;5.494;2023-01-31T07:25:39;102170.69;;;2.45;100.00
47897;BME280;39629;51.400;5.494;2023-01-31T07:30:40;102174.72;;;2.56;100.00
47897;BME280;39629;51.400;5.494;2023-01-31T07:35:43;102176.81;;;2.63;100.00
47897;BME280;39629;51.400;5.494;2023-01-31T07:40:46;102162.22;;;2.65;100.00
47897;BME280;39629;51.400;5.494;2023-01-31T07:45:47;102158.59;;;2.80;100.00
47897;BME280;39629;51.400;5.494;2023-01-31T07:50:49;102147.69;;;2.87;100.00
47897;BME280;39629;51.400;5.494;2023-01-31T07:55:52;102150.28;;;3.05;100.00
47897;BME280;39629;51.400;5.494;2023-01-31T08:00:54;102140.88;;;3.07;100.00
47897;BME280;39629;51.400;5.494;2023-01-31T08:06:13;102138.56;;;3.13;100.00
47897;BME280;39629;51.400;5.494;2023-01-31T08:11:16;102119.22;;;3.26;100.00
47897;BME280;39629;51.400;5.494;2023-01-31T08:16:18;102112.41;;;3.28;100.00
47897;BME280;39629;51.400;5.494;2023-01-31T08:21:20;102113.25;;;3.47;100.00
47897;BME280;39629;51.400;5.494;2023-01-31T08:26:23;102108.34;;;3.53;100.00
47897;BME280;39629;51.400;5.494;2023-01-31T08:31:26;102115.75;;;3.63;100.00
47897;BME280;39629;51.400;5.494;2023-01-31T08:36:29;102111.72;;;3.70;100.00
47897;BME280;39629;51.400;5.494;2023-01-31T08:41:33;102097.66;;;3.86;100.00
47897;BME280;39629;51.400;5.494;2023-01-31T08:46:36;102096.59;;;4.00;100.00
47897;BME280;39629;51.400;5.494;2023-01-31T08:51:37;102090.94;;;4.11;100.00
47897;BME280;39629;51.400;5.494;2023-01-31T08:56:40;102086.97;;;4.19;100.00
47897;BME280;39629;51.400;5.494;2023-01-31T09:01:42;102081.28;;;4.28;100.00
47897;BME280;39629;51.400;5.494;2023-01-31T09:06:45;102080.00;;;4.39;100.00
47897;BME280;39629;51.400;5.494;2023-01-31T09:11:48;102055.16;;;4.47;100.00
47897;BME280;39629;51.400;5.494;2023-01-31T09:16:50;102051.41;;;4.62;100.00
47897;BME280;39629;51.400;5.494;2023-01-31T09:21:52;102055.16;;;4.68;100.00
47897;BME280;39629;51.400;5.494;2023-01-31T09:26:55;102066.09;;;4.81;100.00
47897;BME280;39629;51.400;5.494;2023-01-31T09:31:56;102057.34;;;4.80;100.00
47897;BME280;39629;51.400;5.494;2023-01-31T09:36:58;102046.75;;;4.98;100.00
47897;BME280;39629;51.400;5.494;2023-01-31T09:42:09;102028.75;;;5.04;100.00
47897;BME280;39629;51.400;5.494;2023-01-31T09:47:19;102030.13;;;4.94;100.00
47897;BME280;39629;51.400;5.494;2023-01-31T09:52:28;102028.16;;;5.11;100.00
47897;BME280;39629;51.400;5.494;2023-01-31T09:57:40;102041.06;;;5.31;100.00
47897;BME280;39629;51.400;5.494;2023-01-31T10:03:13;102029.66;;;5.52;100.00
47897;BME280;39629;51.400;5.494;2023-01-31T10:08:28;102017.16;;;5.67;100.00
47897;BME280;39629;51.400;5.494;2023-01-31T10:13:43;102016.59;;;6.00;100.00
47897;BME280;39629;51.400;5.494;2023-01-31T10:18:52;102020.22;;;5.79;100.00
47897;BME280;39629;51.400;5.494;2023-01-31T10:24:00;102007.31;;;5.84;100.00
47897;BME280;39629;51.400;5.494;2023-01-31T10:29:11;101999.50;;;6.10;100.00
47897;BME280;39629;51.400;5.494;2023-01-31T10:34:17;101977.50;;;6.03;100.00
47897;BME280;39629;51.400;5.494;2023-01-31T10:39:22;101984.50;;;6.04;100.00
47897;BME280;39629;51.400;5.494;2023-01-31T10:44:35;102007.06;;;6.02;100.00
47897;BME280;39629;51.400;5.494;2023-01-31T10:49:44;102014.72;;;5.96;100.00
47897;BME280;39629;51.400;5.494;2023-01-31T10:54:52;102013.06;;;6.00;100.00
47897;BME280;39629;51.400;5.494;2023-01-31T11:00:01;101982.34;;;6.45;100.00
47897;BME280;39629;51.400;5.494;2023-01-31T11:05:03;101969.44;;;6.49;100.00
47897;BME280;39629;51.400;5.494;2023-01-31T11:10:21;101987.75;;;6.49;100.00
47897;BME280;39629;51.400;5.494;2023-01-31T11:15:27;101969.09;;;6.65;100.00
47897;BME280;39629;51.400;5.494;2023-01-31T11:20:31;101993.47;;;6.64;100.00
47897;BME280;39629;51.400;5.494;2023-01-31T11:25:34;101968.34;;;6.69;100.00
47897;BME280;39629;51.400;5.494;2023-01-31T11:30:38;101968.69;;;6.81;100.00
47897;BME280;39629;51.400;5.494;2023-01-31T11:35:50;101957.31;;;6.79;100.00
47897;BME280;39629;51.400;5.494;2023-01-31T11:40:52;101952.25;;;6.86;100.00
47897;BME280;39629;51.400;5.494;2023-01-31T11:45:58;101952.09;;;6.79;100.00
47897;BME280;39629;51.400;5.494;2023-01-31T11:51:02;101947.72;;;6.80;100.00
47897;BME280;39629;51.400;5.494;2023-01-31T11:56:11;101941.16;;;6.93;100.00
47897;BME280;39629;51.400;5.494;2023-01-31T12:01:16;101933.25;;;6.91;100.00
47897;BME280;39629;51.400;5.494;2023-01-31T12:06:27;101924.94;;;7.06;100.00
47897;BME280;39629;51.400;5.494;2023-01-31T12:11:30;101938.34;;;6.87;100.00
47897;BME280;39629;51.400;5.494;2023-01-31T12:16:34;101937.31;;;6.81;100.00
47897;BME280;39629;51.400;5.494;2023-01-31T12:21:44;101934.47;;;6.74;100.00
47897;BME280;39629;51.400;5.494;2023-01-31T12:26:51;101942.63;;;6.56;100.00
47897;BME280;39629;51.400;5.494;2023-01-31T12:32:08;101928.22;;;6.41;100.00
47897;BME280;39629;51.400;5.494;2023-01-31T12:37:25;101938.81;;;6.46;100.00
47897;BME280;39629;51.400;5.494;2023-01-31T12:42:42;101927.22;;;6.38;100.00
47897;BME280;39629;51.400;5.494;2023-01-31T12:48:08;101936.19;;;6.19;100.00
47897;BME280;39629;51.400;5.494;2023-01-31T12:53:31;101935.50;;;6.24;100.00
47897;BME280;39629;51.400;5.494;2023-01-31T12:58:45;101932.53;;;6.13;100.00
47897;BME280;39629;51.400;5.494;2023-01-31T13:04:03;101935.91;;;6.09;100.00
47897;BME280;39629;51.400;5.494;2023-01-31T13:09:18;101925.44;;;6.09;100.00
47897;BME280;39629;51.400;5.494;2023-01-31T13:14:23;101920.00;;;6.03;100.00
47897;BME280;39629;51.400;5.494;2023-01-31T13:19:31;101915.09;;;6.12;100.00
47897;BME280;39629;51.400;5.494;2023-01-31T13:24:37;101918.66;;;6.16;100.00
47897;BME280;39629;51.400;5.494;2023-01-31T13:29:43;101908.81;;;6.07;100.00
47897;BME280;39629;51.400;5.494;2023-01-31T13:34:51;101913.91;;;6.03;100.00
47897;BME280;39629;51.400;5.494;2023-01-31T13:39:57;101919.69;;;5.94;100.00
47897;BME280;39629;51.400;5.494;2023-01-31T13:45:04;101908.41;;;5.95;100.00
47897;BME280;39629;51.400;5.494;2023-01-31T13:50:15;101909.16;;;5.91;100.00
47897;BME280;39629;51.400;5.494;2023-01-31T13:55:32;101902.13;;;5.90;100.00
47897;BME280;39629;51.400;5.494;2023-01-31T14:00:39;101902.41;;;5.97;100.00
47897;BME280;39629;51.400;5.494;2023-01-31T14:05:56;101898.09;;;6.00;100.00
47897;BME280;39629;51.400;5.494;2023-01-31T14:10:59;101897.44;;;6.05;100.00
47897;BME280;39629;51.400;5.494;2023-01-31T14:16:01;101895.94;;;6.13;100.00
47897;BME280;39629;51.400;5.494;2023-01-31T14:26:57;101892.19;;;6.33;100.00
47897;BME280;39629;51.400;5.494;2023-01-31T14:31:58;101914.16;;;6.38;100.00
47897;BME280;39629;51.400;5.494;2023-01-31T14:37:07;101924.66;;;6.39;100.00
47897;BME280;39629;51.400;5.494;2023-01-31T14:47:53;101938.19;;;6.53;100.00
47897;BME280;39629;51.400;5.494;2023-01-31T14:53:25;101953.88;;;6.53;100.00
47897;BME280;39629;51.400;5.494;2023-01-31T14:58:41;101947.91;;;6.57;100.00
47897;BME280;39629;51.400;5.494;2023-01-31T15:03:48;101959.34;;;6.59;100.00
47897;BME280;39629;51.400;5.494;2023-01-31T15:09:34;101957.69;;;6.63;100.00
47897;BME280;39629;51.400;5.494;2023-01-31T15:14:37;101964.81;;;6.69;100.00
47897;BME280;39629;51.400;5.494;2023-01-31T15:19:46;101981.44;;;6.69;100.00
47897;BME280;39629;51.400;5.494;2023-01-31T15:24:51;101974.50;;;6.71;100.00
47897;BME280;39629;51.400;5.494;2023-01-31T15:30:03;101971.06;;;6.72;100.00
47897;BME280;39629;51.400;5.494;2023-01-31T15:35:12;101981.59;;;6.75;100.00
47897;BME280;39629;51.400;5.494;2023-01-31T15:40:18;101973.63;;;6.71;100.00
47897;BME280;39629;51.400;5.494;2023-01-31T15:45:23;101972.72;;;6.70;100.00
47897;BME280;39629;51.400;5.494;2023-01-31T15:50:27;101973.59;;;6.69;100.00
47897;BME280;39629;51.400;5.494;2023-01-31T15:55:30;101967.09;;;6.58;100.00
47897;BME280;39629;51.400;5.494;2023-01-31T16:00:35;101964.41;;;6.55;100.00
47897;BME280;39629;51.400;5.494;2023-01-31T16:05:38;101971.16;;;6.48;100.00
47897;BME280;39629;51.400;5.494;2023-01-31T16:10:42;101980.00;;;6.52;100.00
47897;BME280;39629;51.400;5.494;2023-01-31T16:15:46;101996.59;;;6.54;100.00
47897;BME280;39629;51.400;5.494;2023-01-31T16:20:49;102005.97;;;6.47;100.00
47897;BME280;39629;51.400;5.494;2023-01-31T16:25:54;102004.97;;;6.43;100.00
47897;BME280;39629;51.400;5.494;2023-01-31T16:31:06;102011.91;;;6.41;100.00
47897;BME280;39629;51.400;5.494;2023-01-31T16:36:10;102005.91;;;6.45;100.00
47897;BME280;39629;51.400;5.494;2023-01-31T16:41:40;102026.13;;;6.50;100.00
47897;BME280;39629;51.400;5.494;2023-01-31T16:46:48;102027.59;;;6.41;100.00
47897;BME280;39629;51.400;5.494;2023-01-31T16:51:54;102032.03;;;6.45;100.00
47897;BME280;39629;51.400;5.494;2023-01-31T16:57:07;102019.06;;;6.47;100.00
47897;BME280;39629;51.400;5.494;2023-01-31T17:02:24;102020.09;;;6.52;100.00
47897;BME280;39629;51.400;5.494;2023-01-31T17:07:27;102029.97;;;6.35;100.00
47897;BME280;39629;51.400;5.494;2023-01-31T17:12:32;102029.03;;;6.33;100.00
47897;BME280;39629;51.400;5.494;2023-01-31T17:17:36;102012.34;;;6.29;100.00
47897;BME280;39629;51.400;5.494;2023-01-31T17:22:38;102013.88;;;6.23;100.00
47897;BME280;39629;51.400;5.494;2023-01-31T17:27:39;102001.75;;;6.25;100.00
47897;BME280;39629;51.400;5.494;2023-01-31T17:32:42;101991.63;;;6.08;100.00
47897;BME280;39629;51.400;5.494;2023-01-31T17:37:44;101997.00;;;5.87;100.00
47897;BME280;39629;51.400;5.494;2023-01-31T17:42:46;101988.00;;;5.79;100.00
47897;BME280;39629;51.400;5.494;2023-01-31T17:47:49;101988.88;;;5.79;100.00
47897;BME280;39629;51.400;5.494;2023-01-31T17:52:51;101994.53;;;5.68;100.00
47897;BME280;39629;51.400;5.494;2023-01-31T17:57:53;102005.91;;;5.68;100.00
47897;BME280;39629;51.400;5.494;2023-01-31T18:02:56;102000.44;;;5.62;100.00
47897;BME280;39629;51.400;5.494;2023-01-31T18:07:58;101990.59;;;5.55;100.00
47897;BME280;39629;51.400;5.494;2023-01-31T18:12:59;101987.28;;;5.35;100.00
47897;BME280;39629;51.400;5.494;2023-01-31T18:18:03;101993.31;;;5.34;100.00
47897;BME280;39629;51.400;5.494;2023-01-31T18:23:07;101998.97;;;5.22;100.00
47897;BME280;39629;51.400;5.494;2023-01-31T18:28:10;101999.09;;;5.25;100.00
47897;BME280;39629;51.400;5.494;2023-01-31T18:33:13;101998.91;;;5.20;100.00
47897;BME280;39629;51.400;5.494;2023-01-31T18:38:15;102008.69;;;5.26;100.00
47897;BME280;39629;51.400;5.494;2023-01-31T18:43:16;102009.72;;;5.07;100.00
47897;BME280;39629;51.400;5.494;2023-01-31T18:48:19;102005.03;;;5.21;100.00
47897;BME280;39629;51.400;5.494;2023-01-31T18:53:21;102012.59;;;5.15;100.00
47897;BME280;39629;51.400;5.494;2023-01-31T18:58:22;102017.84;;;4.92;100.00
47897;BME280;39629;51.400;5.494;2023-01-31T19:03:25;102019.13;;;4.81;100.00
47897;BME280;39629;51.400;5.494;2023-01-31T19:08:27;102020.34;;;4.89;100.00
47897;BME280;39629;51.400;5.494;2023-01-31T19:13:28;102009.63;;;4.83;100.00
47897;BME280;39629;51.400;5.494;2023-01-31T19:18:32;102022.44;;;4.76;100.00
47897;BME280;39629;51.400;5.494;2023-01-31T19:23:33;102018.59;;;4.67;100.00
47897;BME280;39629;51.400;5.494;2023-01-31T19:28:35;102017.22;;;4.76;100.00
47897;BME280;39629;51.400;5.494;2023-01-31T19:33:38;102029.66;;;4.61;100.00
47897;BME280;39629;51.400;5.494;2023-01-31T19:38:40;102036.63;;;4.62;100.00
47897;BME280;39629;51.400;5.494;2023-01-31T19:43:42;102026.06;;;4.80;100.00
47897;BME280;39629;51.400;5.494;2023-01-31T19:48:45;102029.63;;;4.82;100.00
47897;BME280;39629;51.400;5.494;2023-01-31T19:53:47;102031.47;;;4.85;100.00
47897;BME280;39629;51.400;5.494;2023-01-31T19:58:49;102038.72;;;4.92;100.00
47897;BME280;39629;51.400;5.494;2023-01-31T20:03:52;102029.75;;;5.08;100.00
47897;BME280;39629;51.400;5.494;2023-01-31T20:08:55;102030.41;;;5.02;100.00
47897;BME280;39629;51.400;5.494;2023-01-31T20:13:58;102037.41;;;5.03;100.00
47897;BME280;39629;51.400;5.494;2023-01-31T20:19:01;102030.72;;;5.10;100.00
47897;BME280;39629;51.400;5.494;2023-01-31T20:24:03;102026.91;;;5.02;100.00
47897;BME280;39629;51.400;5.494;2023-01-31T20:29:05;102026.84;;;4.78;100.00
47897;BME280;39629;51.400;5.494;2023-01-31T20:34:09;102014.19;;;4.66;100.00
47897;BME280;39629;51.400;5.494;2023-01-31T20:39:11;102023.31;;;4.54;100.00
47897;BME280;39629;51.400;5.494;2023-01-31T20:44:13;102026.28;;;4.42;100.00
47897;BME280;39629;51.400;5.494;2023-01-31T20:49:16;102026.56;;;4.28;100.00
47897;BME280;39629;51.400;5.494;2023-01-31T20:54:17;102016.25;;;4.10;100.00
47897;BME280;39629;51.400;5.494;2023-01-31T20:59:19;102011.03;;;4.10;100.00
47897;BME280;39629;51.400;5.494;2023-01-31T21:04:22;102015.16;;;4.04;100.00
47897;BME280;39629;51.400;5.494;2023-01-31T21:09:23;102019.53;;;4.05;100.00
47897;BME280;39629;51.400;5.494;2023-01-31T21:14:25;102018.44;;;4.00;100.00
47897;BME280;39629;51.400;5.494;2023-01-31T21:19:28;102023.38;;;3.94;100.00
47897;BME280;39629;51.400;5.494;2023-01-31T21:24:30;102019.88;;;3.94;100.00
47897;BME280;39629;51.400;5.494;2023-01-31T21:29:31;102007.00;;;3.97;100.00
47897;BME280;39629;51.400;5.494;2023-01-31T21:34:34;102015.13;;;3.83;100.00
47897;BME280;39629;51.400;5.494;2023-01-31T21:39:36;102015.59;;;3.74;100.00
47897;BME280;39629;51.400;5.494;2023-01-31T21:44:37;102002.19;;;3.65;100.00
47897;BME280;39629;51.400;5.494;2023-01-31T21:49:40;102005.16;;;3.74;100.00
47897;BME280;39629;51.400;5.494;2023-01-31T21:54:42;101987.78;;;3.73;100.00
47897;BME280;39629;51.400;5.494;2023-01-31T21:59:43;101976.75;;;4.00;100.00
47897;BME280;39629;51.400;5.494;2023-01-31T22:04:47;101961.38;;;4.06;100.00
47897;BME280;39629;51.400;5.494;2023-01-31T22:09:49;101966.47;;;4.03;100.00
47897;BME280;39629;51.400;5.494;2023-01-31T22:14:50;101958.84;;;4.29;100.00
47897;BME280;39629;51.400;5.494;2023-01-31T22:19:53;101961.53;;;4.31;100.00
47897;BME280;39629;51.400;5.494;2023-01-31T22:24:55;101962.72;;;4.39;100.00
47897;BME280;39629;51.400;5.494;2023-01-31T22:29:56;101948.94;;;4.41;100.00
47897;BME280;39629;51.400;5.494;2023-01-31T22:34:59;101961.38;;;4.49;100.00
47897;BME280;39629;51.400;5.494;2023-01-31T22:40:01;101944.06;;;4.51;100.00
47897;BME280;39629;51.400;5.494;2023-01-31T22:45:03;101931.84;;;4.50;100.00
47897;BME280;39629;51.400;5.494;2023-01-31T22:50:09;101942.78;;;4.62;100.00
47897;BME280;39629;51.400;5.494;2023-01-31T22:55:10;101930.38;;;4.56;100.00
47897;BME280;39629;51.400;5.494;2023-01-31T23:00:12;101930.44;;;4.58;100.00
47897;BME280;39629;51.400;5.494;2023-01-31T23:05:16;101940.53;;;4.71;100.00
47897;BME280;39629;51.400;5.494;2023-01-31T23:10:17;101932.72;;;4.71;100.00
47897;BME280;39629;51.400;5.494;2023-01-31T23:15:20;101943.03;;;4.68;100.00
47897;BME280;39629;51.400;5.494;2023-01-31T23:20:23;101944.81;;;4.69;100.00
47897;BME280;39629;51.400;5.494;2023-01-31T23:25:27;101943.03;;;4.68;100.00
47897;BME280;39629;51.400;5.494;2023-01-31T23:30:29;101937.69;;;4.65;100.00
47897;BME280;39629;51.400;5.494;2023-01-31T23:35:32;101945.41;;;4.41;100.00
47897;BME280;39629;51.400;5.494;2023-01-31T23:40:34;101950.91;;;4.26;100.00
47897;BME280;39629;51.400;5.494;2023-01-31T23:45:36;101953.25;;;4.20;100.00
47897;BME280;39629;51.400;5.494;2023-01-31T23:50:39;101948.19;;;4.02;100.00
47897;BME280;39629;51.400;5.494;2023-01-31T23:55:40;101934.19;;;3.79;100.00
